sensor_id;sensor_type;location;lat;lon;timestamp;P1;durP1;ratioP1;P2;durP2;ratioP2
50337;SDS011;46221;51.178;5.900;2023-02-28T00:01:22;2.60;;;1.70;;
50337;SDS011;46221;51.178;5.900;2023-02-28T00:03:48;3.65;;;1.75;;
50337;SDS011;46221;51.178;5.900;2023-02-28T00:06:15;4.03;;;2.13;;
50337;SDS011;46221;51.178;5.900;2023-02-28T00:08:41;2.72;;;1.52;;
50337;SDS011;46221;51.178;5.900;2023-02-28T00:11:09;3.00;;;1.80;;
50337;SDS011;46221;51.178;5.900;2023-02-28T00:13:37;3.45;;;1.90;;
50337;SDS011;46221;51.178;5.900;2023-02-28T00:16:07;3.50;;;1.65;;
50337;SDS011;46221;51.178;5.900;2023-02-28T00:18:39;4.45;;;1.75;;
50337;SDS011;46221;51.178;5.900;2023-02-28T00:21:06;2.70;;;1.70;;
50337;SDS011;46221;51.178;5.900;2023-02-28T00:23:33;5.95;;;2.10;;
50337;SDS011;46221;51.178;5.900;2023-02-28T00:26:00;4.90;;;2.15;;
50337;SDS011;46221;51.178;5.900;2023-02-28T00:28:26;3.92;;;1.73;;
50337;SDS011;46221;51.178;5.900;2023-02-28T00:30:53;4.57;;;2.50;;
50337;SDS011;46221;51.178;5.900;2023-02-28T00:33:20;3.55;;;1.80;;
50337;SDS011;46221;51.178;5.900;2023-02-28T00:35:46;3.10;;;1.90;;
50337;SDS011;46221;51.178;5.900;2023-02-28T00:38:13;3.88;;;2.00;;
50337;SDS011;46221;51.178;5.900;2023-02-28T00:40:40;3.28;;;1.83;;
50337;SDS011;46221;51.178;5.900;2023-02-28T00:43:07;3.08;;;1.70;;
50337;SDS011;46221;51.178;5.900;2023-02-28T00:45:33;4.32;;;1.88;;
50337;SDS011;46221;51.178;5.900;2023-02-28T00:48:00;2.78;;;1.75;;
50337;SDS011;46221;51.178;5.900;2023-02-28T00:50:27;4.18;;;1.85;;
50337;SDS011;46221;51.178;5.900;2023-02-28T00:52:53;2.45;;;1.48;;
50337;SDS011;46221;51.178;5.900;2023-02-28T00:55:19;4.78;;;2.10;;
50337;SDS011;46221;51.178;5.900;2023-02-28T00:57:46;3.65;;;1.98;;
50337;SDS011;46221;51.178;5.900;2023-02-28T01:00:12;2.78;;;1.65;;
50337;SDS011;46221;51.178;5.900;2023-02-28T01:02:39;3.50;;;2.10;;
50337;SDS011;46221;51.178;5.900;2023-02-28T01:05:06;2.80;;;1.70;;
50337;SDS011;46221;51.178;5.900;2023-02-28T01:07:32;3.67;;;2.25;;
50337;SDS011;46221;51.178;5.900;2023-02-28T01:09:59;3.10;;;1.65;;
50337;SDS011;46221;51.178;5.900;2023-02-28T01:12:25;3.45;;;1.75;;
50337;SDS011;46221;51.178;5.900;2023-02-28T01:14:54;4.00;;;2.10;;
50337;SDS011;46221;51.178;5.900;2023-02-28T01:17:20;5.82;;;2.17;;
50337;SDS011;46221;51.178;5.900;2023-02-28T01:19:47;3.65;;;1.77;;
50337;SDS011;46221;51.178;5.900;2023-02-28T01:22:13;4.68;;;1.85;;
50337;SDS011;46221;51.178;5.900;2023-02-28T01:24:40;3.38;;;1.80;;
50337;SDS011;46221;51.178;5.900;2023-02-28T01:27:06;3.30;;;1.90;;
50337;SDS011;46221;51.178;5.900;2023-02-28T01:29:32;3.90;;;1.90;;
50337;SDS011;46221;51.178;5.900;2023-02-28T01:31:59;3.35;;;1.80;;
50337;SDS011;46221;51.178;5.900;2023-02-28T01:34:25;3.20;;;1.80;;
50337;SDS011;46221;51.178;5.900;2023-02-28T01:36:52;2.80;;;1.60;;
50337;SDS011;46221;51.178;5.900;2023-02-28T01:39:18;3.60;;;2.25;;
50337;SDS011;46221;51.178;5.900;2023-02-28T01:41:45;3.45;;;1.80;;
50337;SDS011;46221;51.178;5.900;2023-02-28T01:45:00;2.95;;;1.80;;
50337;SDS011;46221;51.178;5.900;2023-02-28T01:47:16;3.33;;;1.90;;
50337;SDS011;46221;51.178;5.900;2023-02-28T01:49:43;3.67;;;1.70;;
50337;SDS011;46221;51.178;5.900;2023-02-28T01:52:10;4.65;;;1.60;;
50337;SDS011;46221;51.178;5.900;2023-02-28T01:55:02;3.05;;;1.73;;
50337;SDS011;46221;51.178;5.900;2023-02-28T01:57:37;4.07;;;1.80;;
50337;SDS011;46221;51.178;5.900;2023-02-28T02:00:08;3.63;;;1.90;;
50337;SDS011;46221;51.178;5.900;2023-02-28T02:02:39;3.22;;;2.00;;
50337;SDS011;46221;51.178;5.900;2023-02-28T02:05:24;3.03;;;1.75;;
50337;SDS011;46221;51.178;5.900;2023-02-28T02:07:57;6.10;;;2.08;;
50337;SDS011;46221;51.178;5.900;2023-02-28T02:10:44;3.60;;;1.55;;
50337;SDS011;46221;51.178;5.900;2023-02-28T02:16:12;3.45;;;1.63;;
50337;SDS011;46221;51.178;5.900;2023-02-28T02:24:56;4.35;;;1.95;;
50337;SDS011;46221;51.178;5.900;2023-02-28T02:38:33;3.88;;;2.00;;
50337;SDS011;46221;51.178;5.900;2023-02-28T02:41:21;3.50;;;1.75;;
50337;SDS011;46221;51.178;5.900;2023-02-28T02:44:17;4.38;;;1.80;;
50337;SDS011;46221;51.178;5.900;2023-02-28T02:46:47;6.10;;;2.17;;
50337;SDS011;46221;51.178;5.900;2023-02-28T02:49:25;3.67;;;1.77;;
50337;SDS011;46221;51.178;5.900;2023-02-28T02:51:56;3.58;;;1.90;;
50337;SDS011;46221;51.178;5.900;2023-02-28T02:54:29;3.00;;;2.00;;
50337;SDS011;46221;51.178;5.900;2023-02-28T02:57:00;3.97;;;2.05;;
50337;SDS011;46221;51.178;5.900;2023-02-28T02:59:35;3.28;;;1.80;;
50337;SDS011;46221;51.178;5.900;2023-02-28T03:02:06;4.40;;;2.00;;
50337;SDS011;46221;51.178;5.900;2023-02-28T03:04:36;3.63;;;1.70;;
50337;SDS011;46221;51.178;5.900;2023-02-28T03:07:08;4.07;;;1.90;;
50337;SDS011;46221;51.178;5.900;2023-02-28T03:09:34;4.55;;;1.92;;
50337;SDS011;46221;51.178;5.900;2023-02-28T03:12:04;4.45;;;2.13;;
50337;SDS011;46221;51.178;5.900;2023-02-28T03:17:52;3.50;;;1.98;;
50337;SDS011;46221;51.178;5.900;2023-02-28T03:20:51;3.33;;;2.03;;
50337;SDS011;46221;51.178;5.900;2023-02-28T03:26:02;4.05;;;2.20;;
50337;SDS011;46221;51.178;5.900;2023-02-28T03:28:43;4.55;;;2.22;;
50337;SDS011;46221;51.178;5.900;2023-02-28T03:34:36;4.53;;;2.05;;
50337;SDS011;46221;51.178;5.900;2023-02-28T03:36:53;3.78;;;1.98;;
50337;SDS011;46221;51.178;5.900;2023-02-28T03:39:25;3.60;;;1.95;;
50337;SDS011;46221;51.178;5.900;2023-02-28T03:41:57;4.22;;;2.00;;
50337;SDS011;46221;51.178;5.900;2023-02-28T03:44:35;3.42;;;1.77;;
50337;SDS011;46221;51.178;5.900;2023-02-28T03:47:08;4.40;;;2.22;;
50337;SDS011;46221;51.178;5.900;2023-02-28T03:49:46;3.45;;;1.90;;
50337;SDS011;46221;51.178;5.900;2023-02-28T03:52:20;4.38;;;1.90;;
50337;SDS011;46221;51.178;5.900;2023-02-28T03:54:52;3.22;;;1.70;;
50337;SDS011;46221;51.178;5.900;2023-02-28T04:00:28;3.38;;;1.77;;
50337;SDS011;46221;51.178;5.900;2023-02-28T04:05:30;5.38;;;2.17;;
50337;SDS011;46221;51.178;5.900;2023-02-28T04:08:05;3.33;;;1.73;;
50337;SDS011;46221;51.178;5.900;2023-02-28T04:10:33;5.15;;;2.20;;
50337;SDS011;46221;51.178;5.900;2023-02-28T04:13:00;3.03;;;1.77;;
50337;SDS011;46221;51.178;5.900;2023-02-28T04:15:26;4.10;;;2.08;;
50337;SDS011;46221;51.178;5.900;2023-02-28T04:17:53;4.65;;;1.92;;
50337;SDS011;46221;51.178;5.900;2023-02-28T04:20:19;3.28;;;1.98;;
50337;SDS011;46221;51.178;5.900;2023-02-28T04:22:46;4.13;;;2.42;;
50337;SDS011;46221;51.178;5.900;2023-02-28T04:25:12;4.15;;;2.05;;
50337;SDS011;46221;51.178;5.900;2023-02-28T04:27:39;3.20;;;2.10;;
50337;SDS011;46221;51.178;5.900;2023-02-28T04:30:06;3.05;;;1.90;;
50337;SDS011;46221;51.178;5.900;2023-02-28T04:32:33;2.88;;;1.80;;
50337;SDS011;46221;51.178;5.900;2023-02-28T04:34:59;5.70;;;2.10;;
50337;SDS011;46221;51.178;5.900;2023-02-28T04:37:26;3.15;;;1.90;;
50337;SDS011;46221;51.178;5.900;2023-02-28T04:39:54;4.10;;;1.95;;
50337;SDS011;46221;51.178;5.900;2023-02-28T04:42:21;3.40;;;2.10;;
50337;SDS011;46221;51.178;5.900;2023-02-28T04:44:47;4.93;;;2.10;;
50337;SDS011;46221;51.178;5.900;2023-02-28T04:47:14;3.95;;;1.90;;
50337;SDS011;46221;51.178;5.900;2023-02-28T04:49:40;3.80;;;1.83;;
50337;SDS011;46221;51.178;5.900;2023-02-28T04:52:07;4.00;;;2.13;;
50337;SDS011;46221;51.178;5.900;2023-02-28T04:54:34;3.60;;;2.00;;
50337;SDS011;46221;51.178;5.900;2023-02-28T04:57:01;3.25;;;1.83;;
50337;SDS011;46221;51.178;5.900;2023-02-28T04:59:28;3.50;;;1.75;;
50337;SDS011;46221;51.178;5.900;2023-02-28T05:01:54;4.13;;;1.98;;
50337;SDS011;46221;51.178;5.900;2023-02-28T05:04:20;4.32;;;1.80;;
50337;SDS011;46221;51.178;5.900;2023-02-28T05:06:47;4.35;;;2.03;;
50337;SDS011;46221;51.178;5.900;2023-02-28T05:09:13;3.63;;;2.20;;
50337;SDS011;46221;51.178;5.900;2023-02-28T05:11:40;3.58;;;2.13;;
50337;SDS011;46221;51.178;5.900;2023-02-28T05:14:09;3.97;;;2.08;;
50337;SDS011;46221;51.178;5.900;2023-02-28T05:16:37;3.95;;;2.00;;
50337;SDS011;46221;51.178;5.900;2023-02-28T05:19:04;3.45;;;1.85;;
50337;SDS011;46221;51.178;5.900;2023-02-28T05:21:35;3.25;;;1.90;;
50337;SDS011;46221;51.178;5.900;2023-02-28T05:24:07;3.83;;;2.10;;
50337;SDS011;46221;51.178;5.900;2023-02-28T05:26:37;3.75;;;1.90;;
50337;SDS011;46221;51.178;5.900;2023-02-28T05:29:06;2.88;;;1.88;;
50337;SDS011;46221;51.178;5.900;2023-02-28T05:31:32;2.92;;;1.90;;
50337;SDS011;46221;51.178;5.900;2023-02-28T05:33:59;3.10;;;1.70;;
50337;SDS011;46221;51.178;5.900;2023-02-28T05:36:26;4.63;;;2.30;;
50337;SDS011;46221;51.178;5.900;2023-02-28T05:38:53;3.45;;;1.73;;
50337;SDS011;46221;51.178;5.900;2023-02-28T05:41:19;3.10;;;1.60;;
50337;SDS011;46221;51.178;5.900;2023-02-28T05:43:47;4.40;;;2.22;;
50337;SDS011;46221;51.178;5.900;2023-02-28T05:46:14;3.53;;;1.90;;
50337;SDS011;46221;51.178;5.900;2023-02-28T05:48:41;2.72;;;1.65;;
50337;SDS011;46221;51.178;5.900;2023-02-28T05:51:11;3.25;;;2.00;;
50337;SDS011;46221;51.178;5.900;2023-02-28T05:53:37;4.82;;;2.10;;
50337;SDS011;46221;51.178;5.900;2023-02-28T05:56:04;3.97;;;1.63;;
50337;SDS011;46221;51.178;5.900;2023-02-28T05:58:31;2.97;;;1.83;;
50337;SDS011;46221;51.178;5.900;2023-02-28T06:00:58;5.45;;;2.17;;
50337;SDS011;46221;51.178;5.900;2023-02-28T06:03:25;5.68;;;2.30;;
50337;SDS011;46221;51.178;5.900;2023-02-28T06:05:52;3.17;;;1.95;;
50337;SDS011;46221;51.178;5.900;2023-02-28T06:08:19;4.57;;;2.20;;
50337;SDS011;46221;51.178;5.900;2023-02-28T06:10:45;3.38;;;1.73;;
50337;SDS011;46221;51.178;5.900;2023-02-28T06:13:12;4.40;;;2.00;;
50337;SDS011;46221;51.178;5.900;2023-02-28T06:15:38;3.80;;;1.90;;
50337;SDS011;46221;51.178;5.900;2023-02-28T06:18:05;4.00;;;1.70;;
50337;SDS011;46221;51.178;5.900;2023-02-28T06:20:32;3.08;;;1.70;;
50337;SDS011;46221;51.178;5.900;2023-02-28T06:22:59;4.80;;;2.45;;
50337;SDS011;46221;51.178;5.900;2023-02-28T06:25:26;4.55;;;1.85;;
50337;SDS011;46221;51.178;5.900;2023-02-28T06:27:54;7.05;;;2.17;;
50337;SDS011;46221;51.178;5.900;2023-02-28T06:30:21;5.95;;;2.03;;
50337;SDS011;46221;51.178;5.900;2023-02-28T06:32:51;2.83;;;1.67;;
50337;SDS011;46221;51.178;5.900;2023-02-28T06:35:18;18.52;;;3.08;;
50337;SDS011;46221;51.178;5.900;2023-02-28T06:37:44;4.07;;;2.05;;
50337;SDS011;46221;51.178;5.900;2023-02-28T06:40:11;6.75;;;1.75;;
50337;SDS011;46221;51.178;5.900;2023-02-28T06:42:39;3.58;;;2.05;;
50337;SDS011;46221;51.178;5.900;2023-02-28T06:45:05;5.32;;;2.08;;
50337;SDS011;46221;51.178;5.900;2023-02-28T06:47:36;3.75;;;1.80;;
50337;SDS011;46221;51.178;5.900;2023-02-28T06:50:04;4.82;;;1.75;;
50337;SDS011;46221;51.178;5.900;2023-02-28T06:52:32;3.63;;;2.20;;
50337;SDS011;46221;51.178;5.900;2023-02-28T06:54:58;5.70;;;2.10;;
50337;SDS011;46221;51.178;5.900;2023-02-28T06:57:28;4.55;;;2.03;;
50337;SDS011;46221;51.178;5.900;2023-02-28T06:59:58;3.70;;;1.60;;
50337;SDS011;46221;51.178;5.900;2023-02-28T07:02:26;4.18;;;1.70;;
50337;SDS011;46221;51.178;5.900;2023-02-28T07:04:53;5.40;;;1.77;;
50337;SDS011;46221;51.178;5.900;2023-02-28T07:07:20;6.07;;;1.95;;
50337;SDS011;46221;51.178;5.900;2023-02-28T07:09:47;4.65;;;2.03;;
50337;SDS011;46221;51.178;5.900;2023-02-28T07:12:14;4.20;;;1.77;;
50337;SDS011;46221;51.178;5.900;2023-02-28T07:14:40;4.15;;;1.60;;
50337;SDS011;46221;51.178;5.900;2023-02-28T07:17:08;6.55;;;2.13;;
50337;SDS011;46221;51.178;5.900;2023-02-28T07:19:37;2.78;;;1.67;;
50337;SDS011;46221;51.178;5.900;2023-02-28T07:22:06;4.85;;;1.80;;
50337;SDS011;46221;51.178;5.900;2023-02-28T07:24:33;7.68;;;3.22;;
50337;SDS011;46221;51.178;5.900;2023-02-28T07:27:00;7.13;;;2.30;;
50337;SDS011;46221;51.178;5.900;2023-02-28T07:29:27;4.13;;;1.98;;
50337;SDS011;46221;51.178;5.900;2023-02-28T07:31:54;4.80;;;1.95;;
50337;SDS011;46221;51.178;5.900;2023-02-28T07:34:20;5.22;;;2.10;;
50337;SDS011;46221;51.178;5.900;2023-02-28T07:36:47;4.07;;;1.83;;
50337;SDS011;46221;51.178;5.900;2023-02-28T07:39:14;3.85;;;1.63;;
50337;SDS011;46221;51.178;5.900;2023-02-28T07:41:40;5.10;;;1.95;;
50337;SDS011;46221;51.178;5.900;2023-02-28T07:44:10;5.97;;;2.53;;
50337;SDS011;46221;51.178;5.900;2023-02-28T07:46:37;3.78;;;1.98;;
50337;SDS011;46221;51.178;5.900;2023-02-28T07:49:08;4.03;;;2.10;;
50337;SDS011;46221;51.178;5.900;2023-02-28T07:51:34;3.88;;;2.20;;
50337;SDS011;46221;51.178;5.900;2023-02-28T07:54:01;3.30;;;1.88;;
50337;SDS011;46221;51.178;5.900;2023-02-28T07:56:28;4.15;;;1.80;;
50337;SDS011;46221;51.178;5.900;2023-02-28T07:58:55;2.97;;;1.70;;
50337;SDS011;46221;51.178;5.900;2023-02-28T08:01:25;4.32;;;1.70;;
50337;SDS011;46221;51.178;5.900;2023-02-28T08:03:54;4.13;;;1.95;;
50337;SDS011;46221;51.178;5.900;2023-02-28T08:06:23;3.47;;;1.95;;
50337;SDS011;46221;51.178;5.900;2023-02-28T08:08:51;4.30;;;1.70;;
50337;SDS011;46221;51.178;5.900;2023-02-28T08:11:18;4.00;;;1.77;;
50337;SDS011;46221;51.178;5.900;2023-02-28T08:13:45;2.70;;;1.40;;
50337;SDS011;46221;51.178;5.900;2023-02-28T08:16:12;3.38;;;1.73;;
50337;SDS011;46221;51.178;5.900;2023-02-28T08:18:48;4.75;;;1.75;;
50337;SDS011;46221;51.178;5.900;2023-02-28T08:21:19;4.13;;;1.40;;
50337;SDS011;46221;51.178;5.900;2023-02-28T08:23:53;3.17;;;1.83;;
50337;SDS011;46221;51.178;5.900;2023-02-28T08:26:19;3.67;;;1.90;;
50337;SDS011;46221;51.178;5.900;2023-02-28T08:28:46;3.70;;;1.67;;
50337;SDS011;46221;51.178;5.900;2023-02-28T08:31:13;4.03;;;1.73;;
50337;SDS011;46221;51.178;5.900;2023-02-28T08:33:41;6.30;;;2.22;;
50337;SDS011;46221;51.178;5.900;2023-02-28T08:36:09;4.90;;;1.75;;
50337;SDS011;46221;51.178;5.900;2023-02-28T08:38:36;3.75;;;1.60;;
50337;SDS011;46221;51.178;5.900;2023-02-28T08:41:04;3.35;;;1.92;;
50337;SDS011;46221;51.178;5.900;2023-02-28T08:43:33;3.95;;;1.95;;
50337;SDS011;46221;51.178;5.900;2023-02-28T08:46:00;3.55;;;1.70;;
50337;SDS011;46221;51.178;5.900;2023-02-28T08:48:28;3.95;;;1.70;;
50337;SDS011;46221;51.178;5.900;2023-02-28T08:50:56;4.15;;;1.60;;
50337;SDS011;46221;51.178;5.900;2023-02-28T08:53:33;5.65;;;1.70;;
50337;SDS011;46221;51.178;5.900;2023-02-28T08:56:01;3.58;;;1.90;;
50337;SDS011;46221;51.178;5.900;2023-02-28T08:58:33;3.53;;;1.55;;
50337;SDS011;46221;51.178;5.900;2023-02-28T09:01:10;3.67;;;1.55;;
50337;SDS011;46221;51.178;5.900;2023-02-28T09:06:18;4.47;;;1.70;;
50337;SDS011;46221;51.178;5.900;2023-02-28T09:08:47;2.90;;;1.75;;
50337;SDS011;46221;51.178;5.900;2023-02-28T09:11:14;3.63;;;1.80;;
50337;SDS011;46221;51.178;5.900;2023-02-28T09:13:42;3.42;;;1.60;;
50337;SDS011;46221;51.178;5.900;2023-02-28T09:16:12;3.35;;;1.42;;
50337;SDS011;46221;51.178;5.900;2023-02-28T09:18:42;3.92;;;1.40;;
50337;SDS011;46221;51.178;5.900;2023-02-28T09:21:14;2.97;;;1.48;;
50337;SDS011;46221;51.178;5.900;2023-02-28T09:23:46;3.30;;;1.40;;
50337;SDS011;46221;51.178;5.900;2023-02-28T09:26:26;3.08;;;1.48;;
50337;SDS011;46221;51.178;5.900;2023-02-28T09:29:04;3.05;;;1.35;;
50337;SDS011;46221;51.178;5.900;2023-02-28T09:31:31;3.13;;;1.75;;
50337;SDS011;46221;51.178;5.900;2023-02-28T09:33:57;3.55;;;1.70;;
50337;SDS011;46221;51.178;5.900;2023-02-28T09:36:25;4.18;;;1.60;;
50337;SDS011;46221;51.178;5.900;2023-02-28T09:39:09;2.28;;;1.30;;
50337;SDS011;46221;51.178;5.900;2023-02-28T09:41:40;3.80;;;1.48;;
50337;SDS011;46221;51.178;5.900;2023-02-28T09:44:29;3.00;;;1.25;;
50337;SDS011;46221;51.178;5.900;2023-02-28T09:47:05;2.17;;;1.00;;
50337;SDS011;46221;51.178;5.900;2023-02-28T09:49:40;2.05;;;1.40;;
50337;SDS011;46221;51.178;5.900;2023-02-28T09:52:10;3.47;;;1.48;;
50337;SDS011;46221;51.178;5.900;2023-02-28T09:54:42;2.45;;;1.10;;
50337;SDS011;46221;51.178;5.900;2023-02-28T09:57:13;3.08;;;1.13;;
50337;SDS011;46221;51.178;5.900;2023-02-28T09:59:49;2.08;;;1.08;;
50337;SDS011;46221;51.178;5.900;2023-02-28T10:03:04;2.15;;;1.00;;
50337;SDS011;46221;51.178;5.900;2023-02-28T10:05:36;2.88;;;1.33;;
50337;SDS011;46221;51.178;5.900;2023-02-28T10:08:21;2.30;;;1.17;;
50337;SDS011;46221;51.178;5.900;2023-02-28T10:10:57;2.05;;;1.10;;
50337;SDS011;46221;51.178;5.900;2023-02-28T10:13:27;1.85;;;1.13;;
50337;SDS011;46221;51.178;5.900;2023-02-28T10:16:05;2.95;;;1.40;;
50337;SDS011;46221;51.178;5.900;2023-02-28T10:18:43;2.37;;;1.10;;
50337;SDS011;46221;51.178;5.900;2023-02-28T10:21:20;1.90;;;1.10;;
50337;SDS011;46221;51.178;5.900;2023-02-28T10:23:52;2.05;;;1.10;;
50337;SDS011;46221;51.178;5.900;2023-02-28T10:26:25;2.90;;;1.30;;
50337;SDS011;46221;51.178;5.900;2023-02-28T10:29:03;2.55;;;1.40;;
50337;SDS011;46221;51.178;5.900;2023-02-28T10:31:29;2.35;;;1.08;;
50337;SDS011;46221;51.178;5.900;2023-02-28T10:33:56;2.47;;;1.23;;
50337;SDS011;46221;51.178;5.900;2023-02-28T10:36:23;1.65;;;0.80;;
50337;SDS011;46221;51.178;5.900;2023-02-28T10:38:49;2.13;;;0.82;;
50337;SDS011;46221;51.178;5.900;2023-02-28T10:41:26;2.28;;;1.17;;
50337;SDS011;46221;51.178;5.900;2023-02-28T10:44:14;3.15;;;1.00;;
50337;SDS011;46221;51.178;5.900;2023-02-28T10:46:48;2.90;;;1.17;;
50337;SDS011;46221;51.178;5.900;2023-02-28T10:49:22;2.25;;;0.90;;
50337;SDS011;46221;51.178;5.900;2023-02-28T10:52:04;1.98;;;1.00;;
50337;SDS011;46221;51.178;5.900;2023-02-28T10:54:31;2.50;;;1.10;;
50337;SDS011;46221;51.178;5.900;2023-02-28T10:57:23;3.53;;;1.02;;
50337;SDS011;46221;51.178;5.900;2023-02-28T11:00:06;2.20;;;1.00;;
50337;SDS011;46221;51.178;5.900;2023-02-28T11:02:42;2.22;;;1.00;;
50337;SDS011;46221;51.178;5.900;2023-02-28T11:05:27;3.83;;;1.13;;
50337;SDS011;46221;51.178;5.900;2023-02-28T11:07:55;2.42;;;1.25;;
50337;SDS011;46221;51.178;5.900;2023-02-28T11:10:26;3.08;;;1.00;;
50337;SDS011;46221;51.178;5.900;2023-02-28T11:12:56;2.55;;;1.25;;
50337;SDS011;46221;51.178;5.900;2023-02-28T11:15:27;3.30;;;1.00;;
50337;SDS011;46221;51.178;5.900;2023-02-28T11:17:59;2.38;;;0.85;;
50337;SDS011;46221;51.178;5.900;2023-02-28T11:20:29;2.60;;;1.23;;
50337;SDS011;46221;51.178;5.900;2023-02-28T11:22:58;2.53;;;1.20;;
50337;SDS011;46221;51.178;5.900;2023-02-28T11:25:34;2.78;;;1.33;;
50337;SDS011;46221;51.178;5.900;2023-02-28T11:28:04;2.22;;;1.15;;
50337;SDS011;46221;51.178;5.900;2023-02-28T11:30:59;3.42;;;1.30;;
50337;SDS011;46221;51.178;5.900;2023-02-28T11:33:44;4.47;;;1.25;;
50337;SDS011;46221;51.178;5.900;2023-02-28T11:41:29;2.42;;;1.02;;
50337;SDS011;46221;51.178;5.900;2023-02-28T11:46:39;3.00;;;1.38;;
50337;SDS011;46221;51.178;5.900;2023-02-28T11:49:26;3.38;;;1.10;;
50337;SDS011;46221;51.178;5.900;2023-02-28T11:51:59;5.00;;;1.35;;
50337;SDS011;46221;51.178;5.900;2023-02-28T11:54:35;2.90;;;1.33;;
50337;SDS011;46221;51.178;5.900;2023-02-28T12:00:34;3.80;;;1.40;;
50337;SDS011;46221;51.178;5.900;2023-02-28T12:03:26;4.03;;;1.40;;
50337;SDS011;46221;51.178;5.900;2023-02-28T12:14:16;3.38;;;1.45;;
50337;SDS011;46221;51.178;5.900;2023-02-28T12:17:05;4.75;;;1.70;;
50337;SDS011;46221;51.178;5.900;2023-02-28T12:20:08;4.18;;;1.80;;
50337;SDS011;46221;51.178;5.900;2023-02-28T12:26:09;3.80;;;1.42;;
50337;SDS011;46221;51.178;5.900;2023-02-28T12:29:00;3.92;;;1.45;;
50337;SDS011;46221;51.178;5.900;2023-02-28T12:31:42;2.97;;;1.40;;
50337;SDS011;46221;51.178;5.900;2023-02-28T12:34:17;3.25;;;1.20;;
50337;SDS011;46221;51.178;5.900;2023-02-28T12:36:47;2.85;;;1.13;;
50337;SDS011;46221;51.178;5.900;2023-02-28T12:39:21;2.72;;;1.10;;
50337;SDS011;46221;51.178;5.900;2023-02-28T12:44:40;2.63;;;1.10;;
50337;SDS011;46221;51.178;5.900;2023-02-28T12:47:16;2.72;;;1.35;;
50337;SDS011;46221;51.178;5.900;2023-02-28T13:00:25;3.72;;;1.40;;
50337;SDS011;46221;51.178;5.900;2023-02-28T13:03:17;3.22;;;1.10;;
50337;SDS011;46221;51.178;5.900;2023-02-28T13:11:28;2.47;;;1.05;;
50337;SDS011;46221;51.178;5.900;2023-02-28T13:13:58;2.92;;;1.52;;
50337;SDS011;46221;51.178;5.900;2023-02-28T13:16:26;2.20;;;1.10;;
50337;SDS011;46221;51.178;5.900;2023-02-28T13:18:53;3.85;;;1.25;;
50337;SDS011;46221;51.178;5.900;2023-02-28T13:21:41;2.40;;;1.05;;
50337;SDS011;46221;51.178;5.900;2023-02-28T13:24:10;4.07;;;1.25;;
50337;SDS011;46221;51.178;5.900;2023-02-28T13:34:36;2.42;;;1.10;;
50337;SDS011;46221;51.178;5.900;2023-02-28T13:39:48;3.13;;;1.10;;
50337;SDS011;46221;51.178;5.900;2023-02-28T13:47:30;3.70;;;1.20;;
50337;SDS011;46221;51.178;5.900;2023-02-28T13:52:52;2.90;;;1.20;;
50337;SDS011;46221;51.178;5.900;2023-02-28T13:55:28;3.03;;;1.48;;
50337;SDS011;46221;51.178;5.900;2023-02-28T14:03:37;2.63;;;1.00;;
50337;SDS011;46221;51.178;5.900;2023-02-28T14:11:49;4.75;;;1.48;;
50337;SDS011;46221;51.178;5.900;2023-02-28T14:17:02;3.78;;;1.75;;
50337;SDS011;46221;51.178;5.900;2023-02-28T14:19:30;2.67;;;1.30;;
50337;SDS011;46221;51.178;5.900;2023-02-28T14:30:43;4.18;;;1.50;;
50337;SDS011;46221;51.178;5.900;2023-02-28T14:36:04;4.32;;;1.15;;
50337;SDS011;46221;51.178;5.900;2023-02-28T14:41:20;3.05;;;1.02;;
50337;SDS011;46221;51.178;5.900;2023-02-28T14:43:58;5.53;;;1.65;;
50337;SDS011;46221;51.178;5.900;2023-02-28T14:46:27;3.08;;;1.38;;
50337;SDS011;46221;51.178;5.900;2023-02-28T14:49:06;4.53;;;1.45;;
50337;SDS011;46221;51.178;5.900;2023-02-28T14:51:40;2.75;;;1.13;;
50337;SDS011;46221;51.178;5.900;2023-02-28T14:54:12;3.38;;;1.40;;
50337;SDS011;46221;51.178;5.900;2023-02-28T14:56:41;3.78;;;1.05;;
50337;SDS011;46221;51.178;5.900;2023-02-28T15:07:21;3.55;;;1.13;;
50337;SDS011;46221;51.178;5.900;2023-02-28T15:10:07;4.22;;;1.50;;
50337;SDS011;46221;51.178;5.900;2023-02-28T15:12:46;3.33;;;1.30;;
50337;SDS011;46221;51.178;5.900;2023-02-28T15:15:17;2.60;;;1.20;;
50337;SDS011;46221;51.178;5.900;2023-02-28T15:17:45;3.88;;;1.25;;
50337;SDS011;46221;51.178;5.900;2023-02-28T15:20:14;4.55;;;1.40;;
50337;SDS011;46221;51.178;5.900;2023-02-28T15:22:45;4.75;;;1.35;;
50337;SDS011;46221;51.178;5.900;2023-02-28T15:25:15;3.45;;;1.27;;
50337;SDS011;46221;51.178;5.900;2023-02-28T15:27:47;4.35;;;1.40;;
50337;SDS011;46221;51.178;5.900;2023-02-28T15:30:17;4.90;;;1.33;;
50337;SDS011;46221;51.178;5.900;2023-02-28T15:33:01;2.45;;;1.30;;
50337;SDS011;46221;51.178;5.900;2023-02-28T15:35:51;2.97;;;1.15;;
50337;SDS011;46221;51.178;5.900;2023-02-28T15:38:35;2.85;;;1.35;;
50337;SDS011;46221;51.178;5.900;2023-02-28T15:41:02;3.65;;;1.52;;
50337;SDS011;46221;51.178;5.900;2023-02-28T15:43:35;4.20;;;1.23;;
50337;SDS011;46221;51.178;5.900;2023-02-28T15:46:04;4.88;;;1.30;;
50337;SDS011;46221;51.178;5.900;2023-02-28T15:48:42;3.38;;;1.40;;
50337;SDS011;46221;51.178;5.900;2023-02-28T15:51:33;2.58;;;1.25;;
50337;SDS011;46221;51.178;5.900;2023-02-28T15:54:07;6.35;;;1.00;;
50337;SDS011;46221;51.178;5.900;2023-02-28T15:56:39;3.05;;;1.20;;
50337;SDS011;46221;51.178;5.900;2023-02-28T15:59:15;5.13;;;1.40;;
50337;SDS011;46221;51.178;5.900;2023-02-28T16:01:45;3.60;;;1.10;;
50337;SDS011;46221;51.178;5.900;2023-02-28T16:04:14;6.05;;;1.30;;
50337;SDS011;46221;51.178;5.900;2023-02-28T16:09:24;4.15;;;1.20;;
50337;SDS011;46221;51.178;5.900;2023-02-28T16:11:55;4.65;;;1.30;;
50337;SDS011;46221;51.178;5.900;2023-02-28T16:14:27;4.75;;;1.10;;
50337;SDS011;46221;51.178;5.900;2023-02-28T16:17:02;4.07;;;1.30;;
50337;SDS011;46221;51.178;5.900;2023-02-28T16:19:34;6.07;;;1.70;;
50337;SDS011;46221;51.178;5.900;2023-02-28T16:22:05;3.35;;;1.30;;
50337;SDS011;46221;51.178;5.900;2023-02-28T16:24:31;3.67;;;1.30;;
50337;SDS011;46221;51.178;5.900;2023-02-28T16:26:58;3.97;;;1.50;;
50337;SDS011;46221;51.178;5.900;2023-02-28T16:29:26;2.03;;;1.30;;
50337;SDS011;46221;51.178;5.900;2023-02-28T16:31:57;4.55;;;1.33;;
50337;SDS011;46221;51.178;5.900;2023-02-28T16:34:25;4.60;;;1.52;;
50337;SDS011;46221;51.178;5.900;2023-02-28T16:36:52;4.85;;;1.80;;
50337;SDS011;46221;51.178;5.900;2023-02-28T16:39:19;4.13;;;1.60;;
50337;SDS011;46221;51.178;5.900;2023-02-28T16:41:48;2.90;;;1.35;;
50337;SDS011;46221;51.178;5.900;2023-02-28T16:44:38;4.82;;;1.63;;
50337;SDS011;46221;51.178;5.900;2023-02-28T16:47:03;5.45;;;1.60;;
50337;SDS011;46221;51.178;5.900;2023-02-28T16:49:30;3.85;;;1.60;;
50337;SDS011;46221;51.178;5.900;2023-02-28T16:51:56;4.95;;;1.75;;
50337;SDS011;46221;51.178;5.900;2023-02-28T16:54:23;4.97;;;1.90;;
50337;SDS011;46221;51.178;5.900;2023-02-28T16:56:50;9.45;;;2.10;;
50337;SDS011;46221;51.178;5.900;2023-02-28T16:59:18;8.07;;;2.72;;
50337;SDS011;46221;51.178;5.900;2023-02-28T17:01:47;4.38;;;1.70;;
50337;SDS011;46221;51.178;5.900;2023-02-28T17:04:15;5.75;;;2.08;;
50337;SDS011;46221;51.178;5.900;2023-02-28T17:06:41;3.97;;;1.85;;
50337;SDS011;46221;51.178;5.900;2023-02-28T17:09:11;5.20;;;1.90;;
50337;SDS011;46221;51.178;5.900;2023-02-28T17:11:42;5.85;;;1.80;;
50337;SDS011;46221;51.178;5.900;2023-02-28T17:14:09;7.15;;;2.17;;
50337;SDS011;46221;51.178;5.900;2023-02-28T17:16:36;7.38;;;2.70;;
50337;SDS011;46221;51.178;5.900;2023-02-28T17:19:06;8.05;;;1.73;;
50337;SDS011;46221;51.178;5.900;2023-02-28T17:21:38;5.80;;;1.90;;
50337;SDS011;46221;51.178;5.900;2023-02-28T17:24:05;7.03;;;2.10;;
50337;SDS011;46221;51.178;5.900;2023-02-28T17:26:31;6.93;;;2.05;;
50337;SDS011;46221;51.178;5.900;2023-02-28T17:28:59;5.63;;;2.15;;